Porirua, New Zealand
Current Conditions -  °F | °C
As of 10:00 AM on Sunday 26 Oct 2014 (Local Time) from NZWN Reporting Station
Few Clouds Few Clouds  
Wind Chill: 59°   Ceiling: Unl
Heat Index: 59°   Visibility: 6mi
Dew Point: 43°   Wind: 28mph
Humidity: 55%   Direction: 360°N
Pressure: 29.91"   Gusts: NA
Location:  41.14°S, 174.84°E
Report Text: NZWN 252200Z AUTO 36024KT 9999 FEW033/// 15/06 Q1013 NOSIG
Loading
Personal Weather Stations






























Interactive Weather Map
Tropical Storm Tracking
New forecast layout! Learn more

10-Day Weather Forecast

Advertisements
Track Severe Weather on mobile